createdAt,value
2023-04-29T00:01:16.341Z,100506.34
2023-04-29T00:03:43.616Z,100542.72
2023-04-29T00:06:11.972Z,100463.31
2023-04-29T00:08:38.957Z,100542.19
2023-04-29T00:11:06.312Z,100495.47
2023-04-29T00:13:33.099Z,100543.16
2023-04-29T00:16:00.059Z,100537.16
2023-04-29T00:18:26.841Z,100521.91
2023-04-29T00:20:53.603Z,100540.47
2023-04-29T00:23:20.516Z,100513.94
2023-04-29T00:25:47.390Z,100535.31
2023-04-29T00:28:14.126Z,100525.06
2023-04-29T00:30:41.056Z,100512.06
2023-04-29T00:33:07.936Z,100530.81
2023-04-29T00:35:34.920Z,100533.94
2023-04-29T00:38:01.775Z,100535.59
2023-04-29T00:40:29.163Z,100520.22
2023-04-29T00:42:55.966Z,100527.56
2023-04-29T00:45:23.190Z,100522.38
2023-04-29T00:47:49.992Z,100488.16
2023-04-29T00:50:17.098Z,100505.88
2023-04-29T00:52:44.037Z,100496.41
2023-04-29T00:55:13.202Z,100483.75
2023-04-29T00:57:39.977Z,100482.41
2023-04-29T01:00:07.608Z,100473.91
2023-04-29T01:02:34.394Z,100481.09
2023-04-29T01:05:01.314Z,100498.19
2023-04-29T01:08:02.698Z,100490.88
2023-04-29T01:10:30.881Z,100489.06
2023-04-29T01:13:35.661Z,100504.53
2023-04-29T01:16:04.272Z,100495.63
2023-04-29T01:18:39.636Z,100475.00
2023-04-29T01:21:06.555Z,100496.25
2023-04-29T01:23:33.298Z,100511.25
2023-04-29T01:26:00.220Z,100506.28
2023-04-29T01:28:37.079Z,100508.63
2023-04-29T01:31:20.638Z,100463.78
2023-04-29T01:34:19.034Z,100497.50
2023-04-29T01:36:57.692Z,100484.69
2023-04-29T01:39:31.288Z,100494.84
2023-04-29T01:42:03.327Z,100484.56
2023-04-29T01:44:30.393Z,100489.25
2023-04-29T01:46:57.244Z,100486.44
2023-04-29T01:49:27.983Z,100485.78
2023-04-29T01:51:54.780Z,100447.44
2023-04-29T01:54:22.573Z,100486.44
2023-04-29T01:56:49.617Z,100467.91
2023-04-29T01:59:16.516Z,100475.03
2023-04-29T02:01:43.250Z,100455.19
2023-04-29T02:04:10.165Z,100504.81
2023-04-29T02:06:36.958Z,100500.81
2023-04-29T02:09:04.115Z,100490.03
2023-04-29T02:11:31.144Z,100491.34
2023-04-29T02:13:58.048Z,100488.19
2023-04-29T02:16:24.824Z,100491.34
2023-04-29T02:18:51.766Z,100491.69
2023-04-29T02:21:18.498Z,100490.34
2023-04-29T02:23:45.205Z,100491.88
2023-04-29T02:26:12.202Z,100506.72
2023-04-29T02:28:38.925Z,100503.94
2023-04-29T02:31:05.683Z,100483.72
2023-04-29T02:33:33.289Z,100510.28
2023-04-29T02:35:59.993Z,100510.94
2023-04-29T02:38:26.737Z,100515.63
2023-04-29T02:40:53.533Z,100519.81
2023-04-29T02:43:20.317Z,100530.31
2023-04-29T02:45:47.155Z,100518.25
2023-04-29T02:48:13.981Z,100479.88
2023-04-29T02:50:40.927Z,100533.56
2023-04-29T02:53:07.947Z,100539.38
2023-04-29T02:55:34.813Z,100480.03
2023-04-29T02:58:01.798Z,100531.41
2023-04-29T03:00:28.555Z,100522.59
2023-04-29T03:02:55.451Z,100530.91
2023-04-29T03:05:22.589Z,100542.56
2023-04-29T03:07:49.387Z,100547.41
2023-04-29T03:10:16.140Z,100550.22
2023-04-29T03:12:42.929Z,100553.06
2023-04-29T03:15:10.817Z,100549.06
2023-04-29T03:17:37.725Z,100540.25
2023-04-29T03:20:05.538Z,100544.56
2023-04-29T03:22:32.345Z,100557.50
2023-04-29T03:24:59.104Z,100533.41
2023-04-29T03:27:25.883Z,100547.66
2023-04-29T03:29:53.279Z,100549.97
2023-04-29T03:32:20.177Z,100560.16
2023-04-29T03:34:47.098Z,100556.16
2023-04-29T03:37:13.890Z,100549.97
2023-04-29T03:39:40.676Z,100565.13
2023-04-29T03:42:07.573Z,100552.50
2023-04-29T03:44:34.414Z,100538.72
2023-04-29T03:47:01.221Z,100561.81
2023-04-29T03:49:28.160Z,100530.72
2023-04-29T03:51:55.065Z,100555.66
2023-04-29T03:54:21.789Z,100560.31
2023-04-29T03:56:48.628Z,100561.59
2023-04-29T03:59:15.582Z,100540.72
2023-04-29T04:01:43.019Z,100560.94
2023-04-29T04:04:09.915Z,100564.13
2023-04-29T04:06:37.428Z,100563.28
2023-04-29T04:09:04.266Z,100568.97
2023-04-29T04:11:31.054Z,100575.09
2023-04-29T04:13:57.920Z,100581.25
2023-04-29T04:16:24.734Z,100556.63
2023-04-29T04:18:51.569Z,100561.91
2023-04-29T04:21:18.467Z,100566.44
2023-04-29T04:23:45.245Z,100570.41
2023-04-29T04:26:11.967Z,100569.94
2023-04-29T04:28:38.880Z,100571.94
2023-04-29T04:31:05.711Z,100562.28
2023-04-29T04:33:32.453Z,100520.09
2023-04-29T04:35:59.754Z,100564.94
2023-04-29T04:38:27.991Z,100474.38
2023-04-29T04:40:54.793Z,100567.94
2023-04-29T04:43:21.701Z,100558.81
2023-04-29T04:45:48.464Z,100560.63
2023-04-29T04:48:15.292Z,100567.94
2023-04-29T04:50:42.189Z,100577.59
2023-04-29T04:53:09.049Z,100586.75
2023-04-29T04:55:36.822Z,100597.41
2023-04-29T04:58:03.684Z,100573.59
2023-04-29T05:00:31.114Z,100590.41
2023-04-29T05:02:58.566Z,100595.41
2023-04-29T05:05:26.910Z,100593.41
2023-04-29T05:07:53.861Z,100599.75
2023-04-29T05:10:20.588Z,100607.56
2023-04-29T05:12:47.575Z,100612.03
2023-04-29T05:15:15.586Z,100557.19
2023-04-29T05:17:42.368Z,100601.25
2023-04-29T05:20:09.920Z,100609.22
2023-04-29T05:22:36.685Z,100616.88
2023-04-29T05:25:03.883Z,100622.53
2023-04-29T05:27:30.969Z,100590.94
2023-04-29T05:29:58.062Z,100600.47
2023-04-29T05:32:25.032Z,100622.03
2023-04-29T05:34:52.186Z,100598.97
2023-04-29T05:37:19.371Z,100627.53
2023-04-29T05:39:46.118Z,100619.25
2023-04-29T05:42:12.946Z,100599.63
2023-04-29T05:44:40.155Z,100617.44
2023-04-29T05:47:06.986Z,100623.56
2023-04-29T05:49:34.027Z,100569.38
2023-04-29T05:52:04.468Z,100645.03
2023-04-29T05:54:31.570Z,100628.25
2023-04-29T05:56:58.469Z,100636.41
2023-04-29T05:59:25.816Z,100655.53
2023-04-29T06:01:52.651Z,100661.03
2023-04-29T06:04:19.812Z,100661.19
2023-04-29T06:06:46.814Z,100660.38
2023-04-29T06:09:26.365Z,100649.72
2023-04-29T06:11:54.194Z,100655.22
2023-04-29T06:14:21.295Z,100649.88
2023-04-29T06:16:49.321Z,100623.63
2023-04-29T06:19:16.074Z,100627.63
2023-04-29T06:21:43.133Z,100653.56
2023-04-29T06:24:09.976Z,100671.88
2023-04-29T06:26:36.899Z,100653.22
2023-04-29T06:29:06.106Z,100638.78
2023-04-29T06:31:33.137Z,100624.94
2023-04-29T06:33:59.902Z,100634.09
2023-04-29T06:36:27.417Z,100655.06
2023-04-29T06:38:54.289Z,100644.91
2023-04-29T06:41:21.026Z,100647.56
2023-04-29T06:43:48.932Z,100664.38
2023-04-29T06:46:16.429Z,100664.53
2023-04-29T06:48:43.414Z,100664.06
2023-04-29T06:51:10.310Z,100672.41
2023-04-29T06:53:37.053Z,100680.38
2023-04-29T06:56:03.878Z,100676.22
2023-04-29T06:58:30.868Z,100632.63
2023-04-29T07:00:57.776Z,100673.88
2023-04-29T07:03:24.634Z,100675.41
2023-04-29T07:05:51.595Z,100675.06
2023-04-29T07:08:18.748Z,100676.91
2023-04-29T07:10:47.025Z,100675.53
2023-04-29T07:13:14.117Z,100667.72
2023-04-29T07:15:40.889Z,100672.53
2023-04-29T07:18:07.725Z,100666.88
2023-04-29T07:20:37.213Z,100636.06
2023-04-29T07:23:04.025Z,100668.16
2023-04-29T07:25:31.201Z,100660.84
2023-04-29T07:27:58.079Z,100674.44
2023-04-29T07:30:25.217Z,100682.09
2023-04-29T07:32:52.302Z,100685.91
2023-04-29T07:35:19.149Z,100661.28
2023-04-29T07:37:46.014Z,100683.41
2023-04-29T07:40:12.871Z,100668.44
2023-04-29T07:42:39.677Z,100685.72
2023-04-29T07:45:07.163Z,100681.91
2023-04-29T07:47:34.234Z,100685.91
2023-04-29T07:50:01.516Z,100681.56
2023-04-29T07:52:28.432Z,100685.22
2023-04-29T07:54:58.551Z,100681.25
2023-04-29T07:57:25.295Z,100684.56
2023-04-29T07:59:55.399Z,100667.22
2023-04-29T08:02:22.374Z,100656.41
2023-04-29T08:04:51.748Z,100665.63
2023-04-29T08:07:18.930Z,100682.06
2023-04-29T08:09:45.834Z,100674.88
2023-04-29T08:12:12.550Z,100682.31
2023-04-29T08:14:39.336Z,100669.78
2023-04-29T08:17:06.324Z,100689.50
2023-04-29T08:19:33.060Z,100690.75
2023-04-29T08:22:01.199Z,100687.34
2023-04-29T08:24:29.378Z,100694.25
2023-04-29T08:26:56.158Z,100669.41
2023-04-29T08:29:22.962Z,100695.00
2023-04-29T08:31:50.416Z,100688.59
2023-04-29T08:34:18.284Z,100693.88
2023-04-29T08:36:45.006Z,100697.94
2023-04-29T08:39:11.956Z,100703.19
2023-04-29T08:41:39.085Z,100698.00
2023-04-29T08:44:05.908Z,100697.41
2023-04-29T08:46:32.754Z,100695.59
2023-04-29T08:48:59.726Z,100701.41
2023-04-29T08:51:26.742Z,100701.19
2023-04-29T08:53:53.613Z,100696.09
2023-04-29T08:56:21.537Z,100704.13
2023-04-29T08:58:51.999Z,100712.06
2023-04-29T09:01:18.977Z,100664.06
2023-04-29T09:04:08.914Z,100692.34
2023-04-29T09:06:35.899Z,100708.56
2023-04-29T09:09:03.179Z,100719.47
2023-04-29T09:11:30.268Z,100713.75
2023-04-29T09:14:01.714Z,100681.03
2023-04-29T09:16:29.370Z,100713.00
2023-04-29T09:18:57.067Z,100718.00
2023-04-29T09:21:32.514Z,100712.28
2023-04-29T09:24:00.879Z,100703.09
2023-04-29T09:26:27.901Z,100708.91
2023-04-29T09:29:14.402Z,100695.97
2023-04-29T09:31:42.305Z,100648.44
2023-04-29T09:34:09.292Z,100722.00
2023-04-29T09:36:40.045Z,100692.03
2023-04-29T09:39:11.703Z,100714.56
2023-04-29T09:41:42.484Z,100695.97
2023-04-29T09:44:10.275Z,100712.06
2023-04-29T09:46:37.596Z,100722.03
2023-04-29T09:49:07.839Z,100723.72
2023-04-29T09:51:34.682Z,100733.31
2023-04-29T09:54:03.265Z,100701.88
2023-04-29T09:56:31.931Z,100729.34
2023-04-29T09:59:08.495Z,100725.31
2023-04-29T10:01:35.287Z,100731.91
2023-04-29T10:04:02.180Z,100723.84
2023-04-29T10:06:29.012Z,100709.63
2023-04-29T10:08:56.156Z,100729.41
2023-04-29T10:11:22.869Z,100699.59
2023-04-29T10:13:49.621Z,100727.50
2023-04-29T10:16:33.305Z,100729.53
2023-04-29T10:19:01.251Z,100732.47
2023-04-29T10:21:31.999Z,100736.66
2023-04-29T10:23:59.627Z,100707.47
2023-04-29T10:26:30.129Z,100731.66
2023-04-29T10:28:57.116Z,100741.75
2023-04-29T10:31:26.488Z,100732.53
2023-04-29T10:33:55.627Z,100728.63
2023-04-29T10:36:22.404Z,100732.41
2023-04-29T10:38:52.742Z,100691.06
2023-04-29T10:41:28.505Z,100701.34
2023-04-29T10:43:55.691Z,100734.88
2023-04-29T10:46:24.038Z,100743.44
2023-04-29T10:48:55.566Z,100746.44
2023-04-29T10:51:34.952Z,100740.06
2023-04-29T10:54:13.379Z,100748.38
2023-04-29T10:56:50.481Z,100737.22
2023-04-29T10:59:21.481Z,100745.97
2023-04-29T11:01:52.318Z,100718.69
2023-04-29T11:04:20.753Z,100735.41
2023-04-29T11:06:55.573Z,100748.44
2023-04-29T11:09:26.127Z,100716.06
2023-04-29T11:11:54.207Z,100754.16
2023-04-29T11:14:29.462Z,100748.44
2023-04-29T11:17:23.639Z,100750.09
2023-04-29T11:19:51.258Z,100723.03
2023-04-29T11:22:18.324Z,100765.03
2023-04-29T11:25:00.897Z,100741.19
2023-04-29T11:27:32.940Z,100754.78
2023-04-29T11:29:59.987Z,100765.56
2023-04-29T11:32:37.176Z,100770.88
2023-04-29T11:35:14.418Z,100767.81
2023-04-29T11:37:42.059Z,100774.28
2023-04-29T11:40:09.526Z,100760.81
2023-04-29T11:42:57.009Z,100777.41
2023-04-29T11:45:23.829Z,100768.88
2023-04-29T11:47:52.076Z,100752.75
2023-04-29T11:50:20.881Z,100779.09
2023-04-29T11:52:48.334Z,100778.34
2023-04-29T11:55:15.466Z,100755.81
2023-04-29T11:57:42.405Z,100786.44
2023-04-29T12:00:13.006Z,100766.25
2023-04-29T12:02:40.415Z,100777.53
2023-04-29T12:05:13.280Z,100754.06
2023-04-29T12:07:40.481Z,100786.41
2023-04-29T12:10:11.399Z,100785.38
2023-04-29T12:12:41.044Z,100746.81
2023-04-29T12:15:08.313Z,100777.53
2023-04-29T12:17:35.081Z,100789.03
2023-04-29T12:20:02.500Z,100766.28
2023-04-29T12:22:32.793Z,100782.41
2023-04-29T12:24:59.546Z,100786.19
2023-04-29T12:27:27.288Z,100745.28
2023-04-29T12:29:54.110Z,100779.53
2023-04-29T12:32:24.972Z,100744.06
2023-04-29T12:34:55.321Z,100767.63
2023-04-29T12:37:23.583Z,100737.31
2023-04-29T12:39:50.917Z,100769.09
2023-04-29T12:42:17.969Z,100780.72
2023-04-29T12:44:48.536Z,100782.16
2023-04-29T12:47:16.406Z,100772.84
2023-04-29T12:49:44.482Z,100782.28
2023-04-29T12:52:11.846Z,100765.03
2023-04-29T12:54:45.038Z,100773.31
2023-04-29T12:57:12.281Z,100753.63
2023-04-29T12:59:41.193Z,100743.97
2023-04-29T13:02:08.476Z,100778.75
2023-04-29T13:04:35.505Z,100742.28
2023-04-29T13:07:02.711Z,100764.66
2023-04-29T13:09:30.652Z,100732.47
2023-04-29T13:11:57.919Z,100773.06
2023-04-29T13:14:24.670Z,100766.06
2023-04-29T13:16:51.556Z,100770.19
2023-04-29T13:19:38.390Z,100751.97
2023-04-29T13:22:05.530Z,100765.16
2023-04-29T13:24:33.267Z,100760.81
2023-04-29T13:27:00.314Z,100757.66
2023-04-29T13:29:27.333Z,100765.75
2023-04-29T13:31:54.098Z,100739.13
2023-04-29T13:34:21.429Z,100721.31
2023-04-29T13:36:48.507Z,100760.28
2023-04-29T13:39:15.315Z,100745.88
2023-04-29T13:41:45.469Z,100761.50
2023-04-29T13:44:23.493Z,100750.00
2023-04-29T13:46:55.800Z,100746.50
2023-04-29T13:49:55.780Z,100755.19
2023-04-29T13:59:56.439Z,100757.72
2023-04-29T14:02:26.080Z,100745.41
2023-04-29T14:04:54.437Z,100759.50
2023-04-29T14:07:22.064Z,100753.44
2023-04-29T14:09:49.570Z,100754.19
2023-04-29T14:12:16.956Z,100745.66
2023-04-29T14:14:43.710Z,100754.88
2023-04-29T14:17:10.470Z,100731.50
2023-04-29T14:19:37.252Z,100751.16
2023-04-29T14:22:04.142Z,100752.09
2023-04-29T14:24:31.131Z,100751.97
2023-04-29T14:26:58.228Z,100726.19
2023-04-29T14:29:25.493Z,100752.22
2023-04-29T14:31:52.351Z,100751.78
2023-04-29T14:34:20.439Z,100752.50
2023-04-29T14:36:47.205Z,100745.41
2023-04-29T14:39:14.056Z,100751.59
2023-04-29T14:41:40.926Z,100748.97
2023-04-29T14:44:07.663Z,100747.22
2023-04-29T14:46:34.545Z,100743.78
2023-04-29T14:49:02.041Z,100753.75
2023-04-29T14:51:29.629Z,100731.09
2023-04-29T14:53:56.366Z,100721.72
2023-04-29T14:56:23.187Z,100739.31
2023-04-29T14:58:50.033Z,100652.09
2023-04-29T15:01:16.901Z,100746.13
2023-04-29T15:03:44.962Z,100730.03
2023-04-29T15:06:12.418Z,100740.72
2023-04-29T15:08:39.282Z,100745.56
2023-04-29T15:11:06.168Z,100754.31
2023-04-29T15:13:33.059Z,100763.72
2023-04-29T15:15:59.852Z,100757.28
2023-04-29T15:18:26.861Z,100760.25
2023-04-29T15:20:53.933Z,100760.69
2023-04-29T15:23:20.789Z,100758.22
2023-04-29T15:25:47.598Z,100750.81
2023-04-29T15:28:14.517Z,100752.94
2023-04-29T15:30:41.373Z,100714.59
2023-04-29T15:33:08.329Z,100752.09
2023-04-29T15:35:35.223Z,100748.16
2023-04-29T15:38:01.957Z,100754.06
2023-04-29T15:40:28.703Z,100750.94
2023-04-29T15:42:55.670Z,100756.38
2023-04-29T15:45:22.420Z,100756.84
2023-04-29T15:47:49.374Z,100716.53
2023-04-29T15:50:16.457Z,100701.81
2023-04-29T15:52:43.181Z,100732.28
2023-04-29T15:55:09.989Z,100744.59
2023-04-29T15:57:43.650Z,100750.22
2023-04-29T16:00:11.493Z,100737.31
2023-04-29T16:02:38.247Z,100747.00
2023-04-29T16:05:05.424Z,100749.75
2023-04-29T16:07:33.628Z,100745.97
2023-04-29T16:10:01.715Z,100729.41
2023-04-29T16:12:28.814Z,100733.56
2023-04-29T16:14:55.604Z,100739.78
2023-04-29T16:17:22.511Z,100739.78
2023-04-29T16:19:49.775Z,100743.47
2023-04-29T16:22:16.590Z,100739.78
2023-04-29T16:24:43.390Z,100745.97
2023-04-29T16:27:10.758Z,100726.16
2023-04-29T16:29:37.790Z,100685.56
2023-04-29T16:32:05.097Z,100731.88
2023-04-29T16:34:31.961Z,100748.25
2023-04-29T16:36:58.781Z,100755.06
2023-04-29T16:39:25.914Z,100758.84
2023-04-29T16:41:53.425Z,100747.97
2023-04-29T16:44:20.268Z,100748.88
2023-04-29T16:46:47.051Z,100763.72
2023-04-29T16:49:14.843Z,100751.34
2023-04-29T16:51:41.655Z,100754.09
2023-04-29T16:54:09.733Z,100748.28
2023-04-29T16:56:36.695Z,100643.88
2023-04-29T16:59:03.770Z,100755.72
2023-04-29T17:01:30.612Z,100766.19
2023-04-29T17:03:57.514Z,100767.63
2023-04-29T17:06:24.313Z,100720.56
2023-04-29T17:08:51.903Z,100771.44
2023-04-29T17:11:18.949Z,100763.13
2023-04-29T17:13:46.538Z,100771.69
2023-04-29T17:16:14.361Z,100674.03
2023-04-29T17:18:41.807Z,100776.66
2023-04-29T17:21:09.090Z,100769.31
2023-04-29T17:23:36.043Z,100711.13
2023-04-29T17:26:02.962Z,100767.88
2023-04-29T17:28:29.740Z,100757.94
2023-04-29T17:31:00.055Z,100756.31
2023-04-29T17:33:34.120Z,100726.69
2023-04-29T17:36:04.453Z,100760.69
2023-04-29T17:38:33.338Z,100766.97
2023-04-29T17:41:00.965Z,100758.56
2023-04-29T17:43:27.862Z,100762.72
2023-04-29T17:45:54.696Z,100762.22
2023-04-29T17:48:22.709Z,100739.91
2023-04-29T17:50:49.486Z,100767.34
2023-04-29T17:53:16.217Z,100771.44
2023-04-29T17:55:46.382Z,100774.88
2023-04-29T17:58:13.259Z,100770.59
2023-04-29T18:00:41.799Z,100777.31
2023-04-29T18:03:08.924Z,100767.38
2023-04-29T18:05:35.914Z,100770.69
2023-04-29T18:08:02.724Z,100732.34
2023-04-29T18:10:30.026Z,100766.03
2023-04-29T18:12:56.827Z,100773.78
2023-04-29T18:15:23.619Z,100774.94
2023-04-29T18:17:51.347Z,100781.44
2023-04-29T18:20:18.117Z,100775.50
2023-04-29T18:22:44.982Z,100784.25
2023-04-29T18:25:12.367Z,100747.50
2023-04-29T18:27:39.148Z,100780.75
2023-04-29T18:30:07.426Z,100760.44
2023-04-29T18:32:34.260Z,100791.00
2023-04-29T18:35:01.044Z,100791.41
2023-04-29T18:37:27.787Z,100793.47
2023-04-29T18:39:55.152Z,100796.69
2023-04-29T18:42:22.149Z,100794.56
2023-04-29T18:44:51.133Z,100808.09
2023-04-29T18:47:18.023Z,100773.19
2023-04-29T18:49:44.872Z,100809.97
2023-04-29T18:52:12.018Z,100806.16
2023-04-29T18:54:38.926Z,100807.16
2023-04-29T18:57:06.969Z,100801.34
2023-04-29T18:59:36.066Z,100814.56
2023-04-29T19:02:03.451Z,100811.56
2023-04-29T19:04:30.261Z,100819.47
2023-04-29T19:06:57.747Z,100778.34
2023-04-29T19:09:24.642Z,100829.81
2023-04-29T19:11:51.370Z,100827.00
2023-04-29T19:14:18.147Z,100816.50
2023-04-29T19:16:45.299Z,100832.88
2023-04-29T19:19:12.134Z,100805.41
2023-04-29T19:21:38.906Z,100835.91
2023-04-29T19:24:06.246Z,100855.41
2023-04-29T19:26:35.559Z,100847.41
2023-04-29T19:29:03.745Z,100851.28
2023-04-29T19:31:30.756Z,100851.94
2023-04-29T19:33:57.577Z,100818.50
2023-04-29T19:36:24.464Z,100820.53
2023-04-29T19:38:51.534Z,100853.50
2023-04-29T19:41:18.383Z,100817.88
2023-04-29T19:43:45.293Z,100836.06
2023-04-29T19:46:15.538Z,100843.41
2023-04-29T19:48:42.564Z,100858.38
2023-04-29T19:51:09.649Z,100862.44
2023-04-29T19:53:37.028Z,100836.91
2023-04-29T19:56:03.800Z,100885.09
2023-04-29T19:58:30.550Z,100889.06
2023-04-29T20:00:57.546Z,100839.38
2023-04-29T20:03:25.527Z,100881.59
2023-04-29T20:05:52.801Z,100892.09
2023-04-29T20:08:19.787Z,100897.22
2023-04-29T20:10:46.674Z,100893.06
2023-04-29T20:13:13.509Z,100870.56
2023-04-29T20:15:40.475Z,100909.03
2023-04-29T20:18:07.491Z,100904.91
2023-04-29T20:20:34.214Z,100863.72
2023-04-29T20:23:01.202Z,100913.53
2023-04-29T20:25:28.595Z,100835.03
2023-04-29T20:27:59.267Z,100841.69
2023-04-29T20:30:26.981Z,100927.38
2023-04-29T20:32:53.869Z,100924.69
2023-04-29T20:35:20.942Z,100931.69
2023-04-29T20:37:47.905Z,100936.00
2023-04-29T20:40:14.641Z,100931.69
2023-04-29T20:42:41.977Z,100938.19
2023-04-29T20:45:09.216Z,100902.00
2023-04-29T20:47:36.031Z,100935.66
2023-04-29T20:50:04.708Z,100940.50
2023-04-29T20:52:31.626Z,100940.50
2023-04-29T20:54:58.944Z,100945.31
2023-04-29T20:57:25.758Z,100956.81
2023-04-29T20:59:52.935Z,100914.81
2023-04-29T21:02:20.209Z,100954.50
2023-04-29T21:04:47.151Z,100953.16
2023-04-29T21:07:14.159Z,100964.84
2023-04-29T21:09:40.926Z,100973.66
2023-04-29T21:12:08.381Z,100941.44
2023-04-29T21:14:35.588Z,100950.44
2023-04-29T21:17:02.310Z,100956.47
2023-04-29T21:19:29.053Z,100949.13
2023-04-29T21:21:55.982Z,100976.28
2023-04-29T21:24:22.781Z,100979.13
2023-04-29T21:26:50.631Z,100953.91
2023-04-29T21:29:17.619Z,100981.09
2023-04-29T21:31:44.411Z,100986.75
2023-04-29T21:34:11.223Z,100979.44
2023-04-29T21:36:38.102Z,100983.94
2023-04-29T21:39:06.312Z,100987.41
2023-04-29T21:41:37.441Z,100933.03
2023-04-29T21:44:04.340Z,100977.59
2023-04-29T21:46:33.353Z,100975.06
2023-04-29T21:49:00.249Z,100952.38
2023-04-29T21:51:27.739Z,100925.66
2023-04-29T21:53:54.536Z,100978.56
2023-04-29T21:56:22.875Z,100979.91
2023-04-29T21:58:49.859Z,100979.25
2023-04-29T22:01:35.134Z,100974.25
2023-04-29T22:04:02.201Z,100982.09
2023-04-29T22:06:28.987Z,100978.91
2023-04-29T22:08:55.934Z,100978.59
2023-04-29T22:11:22.903Z,100974.25
2023-04-29T22:13:49.740Z,100975.13
2023-04-29T22:16:17.151Z,100949.25
2023-04-29T22:18:44.059Z,100982.44
2023-04-29T22:21:10.803Z,100979.78
2023-04-29T22:23:37.553Z,100984.09
2023-04-29T22:26:04.490Z,100986.44
2023-04-29T22:28:31.187Z,100983.63
2023-04-29T22:30:58.381Z,100980.25
2023-04-29T22:33:25.342Z,100982.91
2023-04-29T22:35:52.099Z,100983.25
2023-04-29T22:38:18.985Z,100975.06
2023-04-29T22:40:52.370Z,100960.94
2023-04-29T22:43:19.158Z,100952.06
2023-04-29T22:45:55.192Z,100956.78
2023-04-29T22:48:23.239Z,100959.41
2023-04-29T22:50:57.401Z,100954.78
2023-04-29T22:53:24.180Z,100855.97
2023-04-29T22:55:58.507Z,100948.78
2023-04-29T22:58:25.879Z,100892.59
2023-04-29T23:00:56.909Z,100912.56
2023-04-29T23:03:24.257Z,100925.09
2023-04-29T23:05:51.181Z,100948.63
2023-04-29T23:08:18.047Z,100946.28
2023-04-29T23:10:50.961Z,100924.16
2023-04-29T23:13:17.826Z,100909.97
2023-04-29T23:15:45.073Z,100901.97
2023-04-29T23:18:12.111Z,100927.00
2023-04-29T23:20:39.057Z,100886.81
2023-04-29T23:23:06.186Z,100925.00
2023-04-29T23:25:33.004Z,100908.84
2023-04-29T23:27:59.758Z,100928.50
2023-04-29T23:30:26.871Z,100928.34
2023-04-29T23:32:53.865Z,100921.50
2023-04-29T23:35:21.023Z,100922.84
2023-04-29T23:37:47.869Z,100913.53
2023-04-29T23:40:16.272Z,100921.34
2023-04-29T23:42:43.017Z,100913.34
2023-04-29T23:45:10.083Z,100905.19
2023-04-29T23:47:37.042Z,100921.19
2023-04-29T23:50:04.245Z,100913.88
2023-04-29T23:52:31.148Z,100901.38
2023-04-29T23:54:57.933Z,100912.69
2023-04-29T23:57:24.828Z,100908.72
2023-04-29T23:59:51.764Z,100904.38
